Time;durP1;ratioP1;P1;durP2;ratioP2;P2;SDS_P1;SDS_P2;PMS_P1;PMS_P2;Temp;Humidity;BMP_temperature;BMP_pressure;BME280_temperature;BME280_humidity;BME280_pressure;Samples;Min_cycle;Max_cycle;Signal;HPM_P1;HPM_P2
2022/10/01 00:01:48;;;;;;;1.23;1.23;;;;;;;;;;5052658;28;20206;-74
2022/10/01 00:04:15;;;;;;;1.10;1.00;;;;;;;;;;5051932;28;20588;-74
2022/10/01 00:06:43;;;;;;;1.13;1.13;;;;;;;;;;5052189;28;20209;-74
2022/10/01 00:09:10;;;;;;;1.27;1.23;;;;;;;;;;5052110;28;20209;-74
2022/10/01 00:11:37;;;;;;;1.27;1.20;;;;;;;;;;5052523;28;20237;-73
2022/10/01 00:14:04;;;;;;;1.50;1.40;;;;;;;;;;5051814;28;20696;-73
2022/10/01 00:16:31;;;;;;;2.13;1.20;;;;;;;;;;5052256;28;20633;-73
2022/10/01 00:18:59;;;;;;;1.30;1.13;;;;;;;;;;5052239;28;20613;-73
2022/10/01 00:21:28;;;;;;;1.43;1.00;;;;;;;;;;5051570;28;20209;-74
2022/10/01 00:23:57;;;;;;;1.50;1.40;;;;;;;;;;5051746;28;20202;-73
2022/10/01 00:26:26;;;;;;;1.33;1.23;;;;;;;;;;5052259;28;20208;-73
2022/10/01 00:28:55;;;;;;;1.53;1.43;;;;;;;;;;5051924;28;20302;-73
2022/10/01 00:31:22;;;;;;;0.90;0.90;;;;;;;;;;5051865;28;20206;-73
2022/10/01 00:33:49;;;;;;;1.40;1.30;;;;;;;;;;5051300;28;20209;-73
2022/10/01 00:36:16;;;;;;;1.07;1.07;;;;;;;;;;5051767;28;20599;-74
2022/10/01 00:38:45;;;;;;;1.03;1.03;;;;;;;;;;5051741;28;20198;-74
2022/10/01 00:41:14;;;;;;;1.10;1.10;;;;;;;;;;5051663;28;20595;-74
2022/10/01 00:43:43;;;;;;;1.97;1.37;;;;;;;;;;5051808;28;20202;-75
2022/10/01 00:46:16;;;;;;;1.50;1.33;;;;;;;;;;5051520;28;20651;-74
2022/10/01 00:48:50;;;;;;;1.60;1.50;;;;;;;;;;5051691;28;20344;-73
2022/10/01 00:51:17;;;;;;;0.93;0.93;;;;;;;;;;5051561;28;20209;-73
2022/10/01 00:53:45;;;;;;;1.33;1.23;;;;;;;;;;5051513;28;20202;-74
2022/10/01 00:56:13;;;;;;;1.40;1.33;;;;;;;;;;5051334;28;20202;-75
2022/10/01 00:58:40;;;;;;;2.17;1.10;;;;;;;;;;5051084;28;20205;-74
2022/10/01 01:01:06;;;;;;;1.30;1.20;;;;;;;;;;5051471;28;20260;-73
2022/10/01 01:03:33;;;;;;;1.90;1.80;;;;;;;;;;5051295;28;20231;-74
2022/10/01 01:06:00;;;;;;;1.30;1.20;;;;;;;;;;5050942;28;20205;-73
2022/10/01 01:08:28;;;;;;;1.47;1.37;;;;;;;;;;5051558;28;20228;-73
2022/10/01 01:11:01;;;;;;;1.80;1.70;;;;;;;;;;5051188;28;20209;-73
2022/10/01 01:13:33;;;;;;;1.03;1.03;;;;;;;;;;5050618;28;20209;-73
2022/10/01 01:16:05;;;;;;;1.60;1.50;;;;;;;;;;5050910;28;20225;-73
2022/10/01 01:18:35;;;;;;;1.60;1.50;;;;;;;;;;5051379;28;20210;-73
2022/10/01 01:21:19;;;;;;;0.93;0.93;;;;;;;;;;5050724;28;20228;-73
2022/10/01 01:24:18;;;;;;;1.63;1.53;;;;;;;;;;5051028;28;20205;-74
2022/10/01 01:27:05;;;;;;;1.70;1.60;;;;;;;;;;5051291;28;20205;-73
2022/10/01 01:29:38;;;;;;;1.73;1.63;;;;;;;;;;5050715;28;20291;-74
2022/10/01 01:32:09;;;;;;;1.37;1.27;;;;;;;;;;5050740;28;20609;-74
2022/10/01 01:34:37;;;;;;;1.60;1.50;;;;;;;;;;5050508;28;20662;-73
2022/10/01 01:37:11;;;;;;;1.50;1.40;;;;;;;;;;5051032;28;20208;-73
2022/10/01 01:39:39;;;;;;;1.10;1.10;;;;;;;;;;5051017;28;20283;-73
2022/10/01 01:42:09;;;;;;;2.70;1.17;;;;;;;;;;5050584;28;20281;-73
2022/10/01 01:44:39;;;;;;;1.97;1.40;;;;;;;;;;5050169;28;20206;-74
2022/10/01 01:47:09;;;;;;;1.80;1.70;;;;;;;;;;5050530;28;20205;-73
2022/10/01 01:49:37;;;;;;;1.17;1.10;;;;;;;;;;5050670;28;20236;-73
2022/10/01 01:52:06;;;;;;;1.17;1.17;;;;;;;;;;5050136;28;20202;-73
2022/10/01 01:54:34;;;;;;;0.83;0.83;;;;;;;;;;5050275;28;20208;-73
2022/10/01 01:57:02;;;;;;;1.03;1.03;;;;;;;;;;5050530;28;20646;-73
2022/10/01 01:59:30;;;;;;;1.10;1.10;;;;;;;;;;5050456;28;20248;-73
2022/10/01 02:01:58;;;;;;;1.40;1.30;;;;;;;;;;5050128;28;20207;-73
2022/10/01 02:04:27;;;;;;;1.60;1.50;;;;;;;;;;5050126;28;20252;-73
2022/10/01 02:07:08;;;;;;;1.10;1.10;;;;;;;;;;5050695;28;20206;-74
2022/10/01 02:09:38;;;;;;;1.37;1.27;;;;;;;;;;5049764;28;20703;-73
2022/10/01 02:12:10;;;;;;;1.27;1.17;;;;;;;;;;5050347;28;20255;-73
2022/10/01 02:14:43;;;;;;;1.50;1.40;;;;;;;;;;5051427;28;20205;-73
2022/10/01 02:17:16;;;;;;;1.33;1.33;;;;;;;;;;5054850;28;20213;-73
2022/10/01 02:19:48;;;;;;;0.93;0.93;;;;;;;;;;5054050;28;20291;-73
2022/10/01 02:22:19;;;;;;;1.40;1.30;;;;;;;;;;5054245;28;20213;-73
2022/10/01 02:24:49;;;;;;;1.60;1.43;;;;;;;;;;5054380;28;20212;-74
2022/10/01 02:27:19;;;;;;;1.10;1.10;;;;;;;;;;5054506;28;20209;-74
2022/10/01 02:29:46;;;;;;;1.17;1.17;;;;;;;;;;5054087;28;20259;-74
2022/10/01 02:32:15;;;;;;;1.17;1.17;;;;;;;;;;5054320;28;20239;-73
2022/10/01 02:34:43;;;;;;;0.93;0.93;;;;;;;;;;5053938;28;20263;-73
2022/10/01 02:37:10;;;;;;;1.33;1.20;;;;;;;;;;5054312;28;20201;-73
2022/10/01 02:39:39;;;;;;;1.23;1.23;;;;;;;;;;5053706;28;20672;-73
2022/10/01 02:42:08;;;;;;;1.50;1.13;;;;;;;;;;5054489;28;20204;-73
2022/10/01 02:44:37;;;;;;;1.77;1.67;;;;;;;;;;5053897;28;20210;-73
2022/10/01 02:47:06;;;;;;;1.50;1.40;;;;;;;;;;5053828;28;20236;-74
2022/10/01 02:49:36;;;;;;;1.30;1.20;;;;;;;;;;5053504;28;20233;-73
2022/10/01 02:52:09;;;;;;;2.67;1.30;;;;;;;;;;5053741;28;20668;-73
2022/10/01 02:54:37;;;;;;;1.50;1.40;;;;;;;;;;5053709;28;20603;-73
2022/10/01 02:57:21;;;;;;;1.47;1.37;;;;;;;;;;5053473;28;20216;-73
2022/10/01 02:59:48;;;;;;;1.60;1.40;;;;;;;;;;5041394;28;20283;-74
2022/10/01 03:02:15;;;;;;;1.30;1.30;;;;;;;;;;5053394;28;20201;-74
2022/10/01 03:04:43;;;;;;;1.40;1.20;;;;;;;;;;5053635;28;20201;-73
2022/10/01 03:07:10;;;;;;;1.27;1.27;;;;;;;;;;5053368;28;20687;-73
2022/10/01 03:09:37;;;;;;;1.33;1.23;;;;;;;;;;5053154;28;20230;-73
2022/10/01 03:12:05;;;;;;;1.60;1.50;;;;;;;;;;5053413;28;20217;-73
2022/10/01 03:14:32;;;;;;;1.27;1.27;;;;;;;;;;5053174;28;20207;-73
2022/10/01 03:16:59;;;;;;;1.30;1.20;;;;;;;;;;5053510;28;20600;-73
2022/10/01 03:19:26;;;;;;;1.60;1.50;;;;;;;;;;5053361;28;20208;-73
2022/10/01 03:21:55;;;;;;;1.60;1.50;;;;;;;;;;5053291;28;20207;-73
2022/10/01 03:24:22;;;;;;;1.57;1.47;;;;;;;;;;5052741;28;20209;-73
2022/10/01 03:26:49;;;;;;;1.27;1.20;;;;;;;;;;5053073;28;20205;-74
2022/10/01 03:29:16;;;;;;;1.70;1.60;;;;;;;;;;5052867;28;20236;-74
2022/10/01 03:31:43;;;;;;;1.40;1.30;;;;;;;;;;5053140;28;20243;-73
2022/10/01 03:34:10;;;;;;;1.10;1.10;;;;;;;;;;5052408;28;20216;-73
2022/10/01 03:36:37;;;;;;;1.50;1.23;;;;;;;;;;5052994;28;20205;-73
2022/10/01 03:39:05;;;;;;;1.40;1.30;;;;;;;;;;5053148;28;20332;-73
2022/10/01 03:41:32;;;;;;;1.30;1.27;;;;;;;;;;5052444;28;20216;-73
2022/10/01 03:43:59;;;;;;;1.80;1.70;;;;;;;;;;5052676;28;20203;-75
2022/10/01 03:46:26;;;;;;;1.43;1.33;;;;;;;;;;5052863;28;20208;-73
2022/10/01 03:48:52;;;;;;;1.30;1.20;;;;;;;;;;5038681;28;20307;-74
2022/10/01 03:51:20;;;;;;;2.00;1.57;;;;;;;;;;5052689;28;20214;-74
2022/10/01 03:53:47;;;;;;;1.30;1.30;;;;;;;;;;5052938;28;20292;-73
2022/10/01 03:56:15;;;;;;;1.20;1.10;;;;;;;;;;5052367;28;20632;-73
2022/10/01 03:58:42;;;;;;;2.37;1.83;;;;;;;;;;5052738;28;20667;-73
2022/10/01 04:01:09;;;;;;;1.83;1.70;;;;;;;;;;5052329;28;20239;-73
2022/10/01 04:03:36;;;;;;;1.60;1.50;;;;;;;;;;5052353;28;20205;-73
2022/10/01 04:06:03;;;;;;;1.97;1.50;;;;;;;;;;5051920;28;20202;-74
2022/10/01 04:08:29;;;;;;;1.50;1.40;;;;;;;;;;5052419;28;20232;-74
2022/10/01 04:10:56;;;;;;;1.67;1.57;;;;;;;;;;5052196;28;20566;-74
2022/10/01 04:13:24;;;;;;;2.40;2.17;;;;;;;;;;5052327;28;20205;-74
2022/10/01 04:15:52;;;;;;;1.67;1.57;;;;;;;;;;5051755;28;20209;-77
2022/10/01 04:18:20;;;;;;;2.47;2.00;;;;;;;;;;5039900;28;20612;-77
2022/10/01 04:20:47;;;;;;;2.83;2.63;;;;;;;;;;5052152;28;20316;-76
2022/10/01 04:23:14;;;;;;;1.83;1.67;;;;;;;;;;5051623;28;20220;-76
2022/10/01 04:25:41;;;;;;;2.30;2.17;;;;;;;;;;5051992;28;20204;-77
2022/10/01 04:28:10;;;;;;;1.37;1.27;;;;;;;;;;5051980;28;20275;-77
2022/10/01 04:30:40;;;;;;;1.50;1.40;;;;;;;;;;5051741;28;20204;-77
2022/10/01 04:33:09;;;;;;;1.70;1.60;;;;;;;;;;5051734;28;20646;-79
2022/10/01 04:35:36;;;;;;;1.27;1.27;;;;;;;;;;5051011;28;20582;-77
2022/10/01 04:38:06;;;;;;;1.57;1.47;;;;;;;;;;5051231;28;20216;-77
2022/10/01 04:40:35;;;;;;;2.43;2.23;;;;;;;;;;5051271;28;20209;-76
2022/10/01 04:43:02;;;;;;;2.27;2.07;;;;;;;;;;5051870;28;20243;-77
2022/10/01 04:45:28;;;;;;;1.60;1.50;;;;;;;;;;5051511;28;20215;-76
2022/10/01 04:47:57;;;;;;;1.83;1.70;;;;;;;;;;5051544;28;20209;-76
2022/10/01 04:50:25;;;;;;;1.67;1.57;;;;;;;;;;5051100;28;20235;-77
2022/10/01 04:52:52;;;;;;;1.60;1.50;;;;;;;;;;5051192;28;20750;-76
2022/10/01 04:55:20;;;;;;;1.23;1.13;;;;;;;;;;5051152;28;20208;-77
2022/10/01 04:57:47;;;;;;;1.40;1.30;;;;;;;;;;5051442;28;20262;-76
2022/10/01 05:00:16;;;;;;;1.60;1.50;;;;;;;;;;5051293;28;20231;-76
2022/10/01 05:02:44;;;;;;;2.00;1.80;;;;;;;;;;5050751;28;20204;-76
2022/10/01 05:05:13;;;;;;;1.63;1.53;;;;;;;;;;5050469;28;20197;-77
2022/10/01 05:07:40;;;;;;;1.87;1.50;;;;;;;;;;5050974;28;20209;-76
2022/10/01 05:10:09;;;;;;;2.30;2.10;;;;;;;;;;5050954;28;20233;-77
2022/10/01 05:12:35;;;;;;;1.33;1.33;;;;;;;;;;5050885;28;20698;-77
2022/10/01 05:15:02;;;;;;;4.23;2.73;;;;;;;;;;5050836;28;20216;-77
2022/10/01 05:17:33;;;;;;;2.97;2.53;;;;;;;;;;5050997;28;20293;-77
2022/10/01 05:20:00;;;;;;;3.90;3.10;;;;;;;;;;5037310;28;20206;-77
2022/10/01 05:22:28;;;;;;;2.60;2.13;;;;;;;;;;5051402;28;20208;-76
2022/10/01 05:24:58;;;;;;;1.80;1.70;;;;;;;;;;5050497;28;20263;-77
2022/10/01 05:27:25;;;;;;;1.43;1.30;;;;;;;;;;5051280;28;20201;-77
2022/10/01 05:29:53;;;;;;;3.10;2.60;;;;;;;;;;5050242;28;20285;-77
2022/10/01 05:32:20;;;;;;;1.90;1.80;;;;;;;;;;5050627;28;20274;-77
2022/10/01 05:34:46;;;;;;;3.63;1.53;;;;;;;;;;5049017;28;20205;-76
2022/10/01 05:37:13;;;;;;;1.50;1.40;;;;;;;;;;5047011;28;20201;-76
2022/10/01 05:39:41;;;;;;;1.80;1.70;;;;;;;;;;5050231;28;20213;-75
2022/10/01 05:42:08;;;;;;;1.77;1.67;;;;;;;;;;5051002;28;20205;-76
2022/10/01 05:44:36;;;;;;;1.80;1.70;;;;;;;;;;5050229;28;20282;-76
2022/10/01 05:47:04;;;;;;;2.67;1.77;;;;;;;;;;5050634;28;20214;-76
2022/10/01 05:49:31;;;;;;;1.80;1.50;;;;;;;;;;5049702;28;20256;-76
2022/10/01 05:52:00;;;;;;;2.33;2.23;;;;;;;;;;5050466;28;20284;-76
2022/10/01 05:54:28;;;;;;;2.30;1.93;;;;;;;;;;5049823;28;20197;-76
2022/10/01 05:56:56;;;;;;;2.03;1.93;;;;;;;;;;5050222;28;20197;-76
2022/10/01 05:59:23;;;;;;;2.17;2.03;;;;;;;;;;5050525;28;20261;-76
2022/10/01 06:01:50;;;;;;;1.97;1.87;;;;;;;;;;5050391;28;20213;-75
2022/10/01 06:04:17;;;;;;;1.50;1.40;;;;;;;;;;5050043;28;20292;-76
2022/10/01 06:06:43;;;;;;;1.20;1.20;;;;;;;;;;5050091;28;20616;-76
2022/10/01 06:09:10;;;;;;;1.60;1.50;;;;;;;;;;5050337;28;20608;-76
2022/10/01 06:11:38;;;;;;;1.40;1.30;;;;;;;;;;5050265;28;21045;-76
2022/10/01 06:14:06;;;;;;;1.70;1.60;;;;;;;;;;5050090;28;20216;-77
2022/10/01 06:16:33;;;;;;;1.70;1.60;;;;;;;;;;5050175;28;20710;-76
2022/10/01 06:18:59;;;;;;;2.03;1.87;;;;;;;;;;5049947;28;20209;-76
2022/10/01 06:21:27;;;;;;;1.10;1.10;;;;;;;;;;5050067;28;20198;-76
2022/10/01 06:23:54;;;;;;;2.23;1.83;;;;;;;;;;5049747;28;20866;-76
2022/10/01 06:26:21;;;;;;;1.47;1.37;;;;;;;;;;5050299;28;20648;-76
2022/10/01 06:28:49;;;;;;;1.33;1.27;;;;;;;;;;5050170;28;20213;-76
2022/10/01 06:31:17;;;;;;;1.63;1.53;;;;;;;;;;5050112;28;20206;-76
2022/10/01 06:33:44;;;;;;;1.43;1.33;;;;;;;;;;5049836;28;20225;-76
2022/10/01 06:36:10;;;;;;;2.20;2.00;;;;;;;;;;5050206;28;20320;-76
2022/10/01 06:38:37;;;;;;;1.50;1.30;;;;;;;;;;5049345;28;20198;-76
2022/10/01 06:41:04;;;;;;;1.70;1.60;;;;;;;;;;5046279;28;20210;-76
2022/10/01 06:43:32;;;;;;;1.97;1.83;;;;;;;;;;5047854;28;20740;-76
2022/10/01 06:46:01;;;;;;;1.50;1.37;;;;;;;;;;5049974;28;20259;-78
2022/10/01 06:48:30;;;;;;;1.33;1.27;;;;;;;;;;5049752;28;20745;-78
2022/10/01 06:50:59;;;;;;;1.47;1.37;;;;;;;;;;5042800;28;20321;-79
2022/10/01 06:53:27;;;;;;;2.43;2.23;;;;;;;;;;5049749;28;20221;-78
2022/10/01 06:55:53;;;;;;;2.30;2.00;;;;;;;;;;5049356;28;20742;-79
2022/10/01 06:58:23;;;;;;;2.50;2.00;;;;;;;;;;5050075;28;20198;-77
2022/10/01 07:00:50;;;;;;;1.53;1.43;;;;;;;;;;5051242;28;20213;-78
2022/10/01 07:03:19;;;;;;;1.73;1.63;;;;;;;;;;5053530;28;20208;-78
2022/10/01 07:05:50;;;;;;;2.50;1.50;;;;;;;;;;5053175;28;20217;-78
2022/10/01 07:08:17;;;;;;;1.43;1.33;;;;;;;;;;5053573;28;20757;-76
2022/10/01 07:10:44;;;;;;;1.73;1.63;;;;;;;;;;5053431;28;20316;-76
2022/10/01 07:13:13;;;;;;;1.53;1.43;;;;;;;;;;5053456;28;20208;-75
2022/10/01 07:15:42;;;;;;;2.93;2.70;;;;;;;;;;5053181;28;20264;-76
2022/10/01 07:18:09;;;;;;;1.37;1.37;;;;;;;;;;5053207;28;20198;-76
2022/10/01 07:20:38;;;;;;;2.00;1.80;;;;;;;;;;5053285;28;20205;-76
2022/10/01 07:23:07;;;;;;;1.50;1.40;;;;;;;;;;5053510;28;20198;-76
2022/10/01 07:25:34;;;;;;;1.53;1.47;;;;;;;;;;5053109;28;20202;-76
2022/10/01 07:28:04;;;;;;;1.40;1.30;;;;;;;;;;5053543;28;20202;-76
2022/10/01 07:30:31;;;;;;;1.80;1.70;;;;;;;;;;5052813;28;20308;-76
2022/10/01 07:32:58;;;;;;;1.37;1.30;;;;;;;;;;5052711;28;20569;-76
2022/10/01 07:35:25;;;;;;;1.83;1.73;;;;;;;;;;5053295;28;20206;-76
2022/10/01 07:37:52;;;;;;;1.80;1.70;;;;;;;;;;5053074;28;20206;-76
2022/10/01 07:40:23;;;;;;;1.67;1.57;;;;;;;;;;5052657;28;20210;-76
2022/10/01 07:42:54;;;;;;;1.50;1.40;;;;;;;;;;5052939;28;20197;-76
2022/10/01 07:45:21;;;;;;;1.77;1.67;;;;;;;;;;5052288;28;20332;-76
2022/10/01 07:47:53;;;;;;;1.30;1.27;;;;;;;;;;5053003;28;20229;-76
2022/10/01 07:50:20;;;;;;;1.27;1.20;;;;;;;;;;5052226;28;20233;-76
2022/10/01 07:52:50;;;;;;;1.50;1.40;;;;;;;;;;5052447;28;20267;-76
2022/10/01 07:55:17;;;;;;;1.27;1.27;;;;;;;;;;5052337;28;20212;-76
2022/10/01 07:57:50;;;;;;;1.50;1.40;;;;;;;;;;5052302;28;20202;-76
2022/10/01 08:00:18;;;;;;;1.73;1.50;;;;;;;;;;5052305;28;20210;-76
2022/10/01 08:02:47;;;;;;;1.60;1.50;;;;;;;;;;5052613;28;20263;-76
2022/10/01 08:05:17;;;;;;;4.03;2.17;;;;;;;;;;5052318;28;20209;-76
2022/10/01 08:07:44;;;;;;;1.40;1.30;;;;;;;;;;5052198;28;20240;-76
2022/10/01 08:10:10;;;;;;;1.53;1.43;;;;;;;;;;5051955;28;20648;-76
2022/10/01 08:12:37;;;;;;;1.60;1.50;;;;;;;;;;5051149;28;20213;-76
2022/10/01 08:15:08;;;;;;;1.73;1.63;;;;;;;;;;5052312;28;20201;-76
2022/10/01 08:17:35;;;;;;;1.60;1.50;;;;;;;;;;5052092;28;20290;-76
2022/10/01 08:20:01;;;;;;;1.40;1.30;;;;;;;;;;5052494;28;20205;-76
2022/10/01 08:22:28;;;;;;;2.27;1.70;;;;;;;;;;5052019;28;20205;-76
2022/10/01 08:24:55;;;;;;;1.57;1.47;;;;;;;;;;5051724;28;20201;-76
2022/10/01 08:27:24;;;;;;;2.10;1.90;;;;;;;;;;5052075;28;20202;-76
2022/10/01 08:29:50;;;;;;;2.23;2.03;;;;;;;;;;5051819;28;20671;-76
2022/10/01 08:32:19;;;;;;;1.73;1.63;;;;;;;;;;5052314;28;20654;-76
2022/10/01 08:34:46;;;;;;;1.65;1.55;;;;;;;;;;5051707;28;20706;-76
2022/10/01 08:37:13;;;;;;;1.77;1.60;;;;;;;;;;5051688;28;20198;-77
2022/10/01 08:39:40;;;;;;;1.70;1.60;;;;;;;;;;5051212;28;20206;-76
2022/10/01 08:42:14;;;;;;;2.72;2.00;;;;;;;;;;5052137;28;20593;-76
2022/10/01 08:44:43;;;;;;;1.60;1.50;;;;;;;;;;5051545;28;20201;-76
2022/10/01 08:47:15;;;;;;;1.98;1.88;;;;;;;;;;5051589;28;20692;-77
2022/10/01 08:49:46;;;;;;;1.73;1.63;;;;;;;;;;5051411;28;20259;-76
2022/10/01 08:52:17;;;;;;;2.05;1.95;;;;;;;;;;5051169;28;20194;-76
2022/10/01 08:54:48;;;;;;;2.20;1.98;;;;;;;;;;5051670;28;20209;-76
2022/10/01 08:57:16;;;;;;;1.50;1.40;;;;;;;;;;5051006;28;20604;-77
2022/10/01 08:59:44;;;;;;;2.42;2.22;;;;;;;;;;5051427;28;20622;-76
2022/10/01 09:02:18;;;;;;;2.00;1.90;;;;;;;;;;5051319;28;20217;-77
2022/10/01 09:04:47;;;;;;;2.80;2.60;;;;;;;;;;5037867;28;20675;-77
2022/10/01 09:07:28;;;;;;;2.03;1.73;;;;;;;;;;5051245;28;20253;-76
2022/10/01 09:09:59;;;;;;;2.55;2.40;;;;;;;;;;5051374;28;20729;-76
2022/10/01 09:12:32;;;;;;;2.30;2.10;;;;;;;;;;5051359;28;20202;-78
2022/10/01 09:15:04;;;;;;;2.40;2.17;;;;;;;;;;5050762;28;20205;-76
2022/10/01 09:17:44;;;;;;;1.83;1.70;;;;;;;;;;5050896;28;20672;-78
2022/10/01 09:20:20;;;;;;;1.98;1.80;;;;;;;;;;5039180;28;20206;-76
2022/10/01 09:22:52;;;;;;;2.30;2.10;;;;;;;;;;5050919;28;20640;-76
2022/10/01 09:25:22;;;;;;;2.25;2.08;;;;;;;;;;5043476;28;20668;-77
2022/10/01 09:27:49;;;;;;;2.72;2.40;;;;;;;;;;5050705;28;20591;-77
2022/10/01 09:30:18;;;;;;;3.00;2.70;;;;;;;;;;5050983;28;20252;-77
2022/10/01 09:32:48;;;;;;;3.38;2.47;;;;;;;;;;5050905;28;20618;-77
2022/10/01 09:35:25;;;;;;;2.65;2.45;;;;;;;;;;5036442;28;20209;-76
2022/10/01 09:37:55;;;;;;;2.13;1.90;;;;;;;;;;5050581;28;20300;-77
2022/10/01 09:40:26;;;;;;;2.45;2.17;;;;;;;;;;5037077;28;20212;-77
2022/10/01 09:42:53;;;;;;;1.92;1.80;;;;;;;;;;5050702;28;20589;-77
2022/10/01 09:45:21;;;;;;;2.22;2.13;;;;;;;;;;5050508;28;20201;-77
2022/10/01 09:47:50;;;;;;;2.97;2.67;;;;;;;;;;5050875;28;20204;-77
2022/10/01 09:50:22;;;;;;;1.45;1.38;;;;;;;;;;5049894;28;20617;-78
2022/10/01 09:52:50;;;;;;;2.70;2.08;;;;;;;;;;5050691;28;20220;-76
2022/10/01 09:55:25;;;;;;;2.97;2.78;;;;;;;;;;5050461;28;20228;-77
2022/10/01 09:57:54;;;;;;;1.73;1.63;;;;;;;;;;5050515;28;20209;-77
2022/10/01 10:00:22;;;;;;;2.47;2.28;;;;;;;;;;5050379;28;20667;-77
2022/10/01 10:02:50;;;;;;;4.00;2.63;;;;;;;;;;5049746;28;20205;-76
2022/10/01 10:05:21;;;;;;;2.30;2.15;;;;;;;;;;5050360;28;20220;-77
2022/10/01 10:07:52;;;;;;;1.95;1.85;;;;;;;;;;5050404;28;20204;-77
2022/10/01 10:10:20;;;;;;;2.50;2.30;;;;;;;;;;5050152;28;20225;-77
2022/10/01 10:12:49;;;;;;;3.13;2.85;;;;;;;;;;5050016;28;20204;-77
2022/10/01 10:15:18;;;;;;;2.70;2.50;;;;;;;;;;5049819;28;20202;-79
2022/10/01 10:17:48;;;;;;;3.47;3.17;;;;;;;;;;5049999;28;20213;-76
2022/10/01 10:20:25;;;;;;;4.82;3.88;;;;;;;;;;5050310;28;20210;-76
2022/10/01 10:22:52;;;;;;;3.90;3.53;;;;;;;;;;5050217;28;20631;-76
2022/10/01 10:25:22;;;;;;;2.97;2.70;;;;;;;;;;5050053;28;20206;-77
2022/10/01 10:27:54;;;;;;;2.90;2.70;;;;;;;;;;5049988;28;20259;-77
2022/10/01 10:30:23;;;;;;;2.00;1.90;;;;;;;;;;5049740;28;20316;-76
2022/10/01 10:32:51;;;;;;;2.67;2.47;;;;;;;;;;5049692;28;20658;-77
2022/10/01 10:35:20;;;;;;;2.60;2.40;;;;;;;;;;5050747;28;20194;-76
2022/10/01 10:37:52;;;;;;;3.40;2.50;;;;;;;;;;5054205;28;20201;-76
2022/10/01 10:40:20;;;;;;;2.50;2.30;;;;;;;;;;5053662;28;20610;-76
2022/10/01 10:42:49;;;;;;;3.47;2.77;;;;;;;;;;5054062;28;20711;-76
2022/10/01 10:45:18;;;;;;;2.50;2.30;;;;;;;;;;5053658;28;20209;-76
2022/10/01 10:47:47;;;;;;;3.00;2.77;;;;;;;;;;5054240;28;20561;-76
2022/10/01 10:50:27;;;;;;;2.80;2.60;;;;;;;;;;5053788;28;20194;-76
2022/10/01 10:52:56;;;;;;;3.23;3.03;;;;;;;;;;5053455;28;20256;-76
2022/10/01 10:55:25;;;;;;;2.90;2.50;;;;;;;;;;5053473;28;20684;-76
2022/10/01 10:57:52;;;;;;;2.30;2.20;;;;;;;;;;5053933;28;20202;-76
2022/10/01 11:00:22;;;;;;;2.90;2.70;;;;;;;;;;5053582;28;20580;-76
2022/10/01 11:02:54;;;;;;;2.50;2.30;;;;;;;;;;5053785;28;20293;-76
2022/10/01 11:05:23;;;;;;;2.97;2.70;;;;;;;;;;5053263;28;20690;-77
2022/10/01 11:07:54;;;;;;;2.60;2.43;;;;;;;;;;5053482;28;20202;-76
2022/10/01 11:10:28;;;;;;;2.53;2.33;;;;;;;;;;5052943;28;20229;-76
2022/10/01 11:13:08;;;;;;;2.97;2.37;;;;;;;;;;5053806;28;20200;-76
2022/10/01 11:15:54;;;;;;;4.80;2.20;;;;;;;;;;5053576;28;20275;-76
2022/10/01 11:18:33;;;;;;;2.37;2.27;;;;;;;;;;5053403;28;20684;-76
2022/10/01 11:21:14;;;;;;;1.90;1.77;;;;;;;;;;5052737;28;20213;-76
2022/10/01 11:23:56;;;;;;;1.93;1.83;;;;;;;;;;5053200;28;20603;-76
2022/10/01 11:26:30;;;;;;;2.03;1.93;;;;;;;;;;5052757;28;20198;-77
2022/10/01 11:29:12;;;;;;;1.98;1.88;;;;;;;;;;5053347;28;20212;-77
2022/10/01 11:31:45;;;;;;;2.30;2.20;;;;;;;;;;5052768;28;20245;-77
2022/10/01 11:34:37;;;;;;;2.33;2.23;;;;;;;;;;5052823;28;20202;-77
2022/10/01 11:37:10;;;;;;;2.90;2.70;;;;;;;;;;5051144;28;20276;-77
2022/10/01 11:39:38;;;;;;;2.20;2.10;;;;;;;;;;5053008;28;20744;-76
2022/10/01 11:42:09;;;;;;;2.03;1.93;;;;;;;;;;5052686;28;20224;-76
2022/10/01 11:44:39;;;;;;;1.80;1.70;;;;;;;;;;5053272;28;20202;-76
2022/10/01 11:47:08;;;;;;;2.00;1.80;;;;;;;;;;5051318;28;20201;-77
2022/10/01 11:49:42;;;;;;;1.77;1.67;;;;;;;;;;5052874;28;20202;-77
2022/10/01 11:52:14;;;;;;;1.40;1.30;;;;;;;;;;5052978;28;20233;-77
2022/10/01 11:54:54;;;;;;;1.83;1.53;;;;;;;;;;5052414;28;20202;-77
2022/10/01 12:00:09;;;;;;;1.57;1.47;;;;;;;;;;5052536;28;20220;-76
2022/10/01 12:02:42;;;;;;;1.90;1.80;;;;;;;;;;5052746;28;20676;-77
2022/10/01 12:05:15;;;;;;;1.27;1.20;;;;;;;;;;5052255;28;20594;-76
2022/10/01 12:07:45;;;;;;;3.37;2.30;;;;;;;;;;5052363;28;20198;-76
2022/10/01 12:10:20;;;;;;;1.57;1.47;;;;;;;;;;5052132;28;20209;-77
2022/10/01 12:12:54;;;;;;;1.63;1.53;;;;;;;;;;5052396;28;20231;-76
2022/10/01 12:15:25;;;;;;;3.20;1.60;;;;;;;;;;5052644;28;20252;-77
2022/10/01 12:17:54;;;;;;;1.73;1.63;;;;;;;;;;5051042;28;20289;-77
2022/10/01 12:20:25;;;;;;;2.23;2.03;;;;;;;;;;5051919;28;20198;-77
2022/10/01 12:22:52;;;;;;;1.50;1.40;;;;;;;;;;5052561;28;20198;-76
2022/10/01 12:25:20;;;;;;;2.03;1.80;;;;;;;;;;5046118;28;20255;-77
2022/10/01 12:27:58;;;;;;;1.40;1.40;;;;;;;;;;5051788;28;20206;-77
2022/10/01 12:30:29;;;;;;;1.57;1.47;;;;;;;;;;5052102;28;20205;-76
2022/10/01 12:33:04;;;;;;;1.70;1.60;;;;;;;;;;5051631;28;20245;-78
2022/10/01 12:35:42;;;;;;;1.90;1.80;;;;;;;;;;5052241;28;20287;-76
2022/10/01 12:38:20;;;;;;;1.70;1.60;;;;;;;;;;5052072;28;20280;-77
2022/10/01 12:40:51;;;;;;;1.60;1.43;;;;;;;;;;5051847;28;20209;-78
2022/10/01 12:43:38;;;;;;;1.40;1.30;;;;;;;;;;5051586;28;20288;-77
2022/10/01 12:46:10;;;;;;;1.47;1.37;;;;;;;;;;5044341;28;20209;-77
2022/10/01 12:48:40;;;;;;;1.10;1.10;;;;;;;;;;5051518;28;20268;-78
2022/10/01 12:51:22;;;;;;;1.47;1.37;;;;;;;;;;5051089;28;20218;-76
2022/10/01 12:53:57;;;;;;;1.50;1.40;;;;;;;;;;5051503;28;20224;-77
2022/10/01 12:56:29;;;;;;;1.60;1.50;;;;;;;;;;5051641;28;20208;-77
2022/10/01 12:59:09;;;;;;;1.23;1.13;;;;;;;;;;5050950;28;20228;-77
2022/10/01 13:01:44;;;;;;;1.87;1.60;;;;;;;;;;5051280;28;20213;-77
2022/10/01 13:04:26;;;;;;;1.37;1.33;;;;;;;;;;5050982;28;20205;-77
2022/10/01 13:07:03;;;;;;;1.10;1.10;;;;;;;;;;5051586;28;20205;-77
2022/10/01 13:09:33;;;;;;;1.47;1.37;;;;;;;;;;5050778;28;20566;-78
2022/10/01 13:12:10;;;;;;;1.97;1.60;;;;;;;;;;5051249;28;20749;-77
2022/10/01 13:14:41;;;;;;;1.50;1.40;;;;;;;;;;5050681;28;20205;-78
2022/10/01 13:17:16;;;;;;;1.33;1.30;;;;;;;;;;5051523;28;20211;-77
2022/10/01 13:19:48;;;;;;;1.20;1.10;;;;;;;;;;5050954;28;20627;-77
2022/10/01 13:22:20;;;;;;;1.07;1.07;;;;;;;;;;5051251;28;20202;-78
2022/10/01 13:24:50;;;;;;;1.00;1.00;;;;;;;;;;5051038;28;20205;-77
2022/10/01 13:27:21;;;;;;;1.30;1.20;;;;;;;;;;5050506;28;20198;-77
2022/10/01 13:29:58;;;;;;;1.33;1.30;;;;;;;;;;5050475;28;20201;-77
2022/10/01 13:32:32;;;;;;;1.13;1.13;;;;;;;;;;5050667;28;20244;-77
2022/10/01 13:35:00;;;;;;;1.10;1.00;;;;;;;;;;5050674;28;20681;-77
2022/10/01 13:37:37;;;;;;;1.57;1.47;;;;;;;;;;5050681;28;20209;-78
2022/10/01 13:40:22;;;;;;;1.00;1.00;;;;;;;;;;5050391;28;20728;-77
2022/10/01 13:42:49;;;;;;;1.40;1.30;;;;;;;;;;5050791;28;20205;-77
2022/10/01 13:45:29;;;;;;;1.40;1.30;;;;;;;;;;5050307;28;20585;-77
2022/10/01 13:48:07;;;;;;;1.10;1.10;;;;;;;;;;5050471;28;20630;-77
2022/10/01 13:50:34;;;;;;;1.10;1.10;;;;;;;;;;5050067;28;20759;-77
2022/10/01 13:53:06;;;;;;;1.33;1.23;;;;;;;;;;5050550;28;20229;-77
2022/10/01 13:55:33;;;;;;;1.23;1.13;;;;;;;;;;5050437;28;20198;-77
2022/10/01 13:58:03;;;;;;;1.03;1.00;;;;;;;;;;5050026;28;20198;-77
2022/10/01 14:00:32;;;;;;;1.33;1.23;;;;;;;;;;5050227;28;20198;-77
2022/10/01 14:03:01;;;;;;;0.90;0.90;;;;;;;;;;5050744;28;20197;-77
2022/10/01 14:05:35;;;;;;;0.90;0.90;;;;;;;;;;5050286;28;20201;-77
2022/10/01 14:08:09;;;;;;;1.00;1.00;;;;;;;;;;5050581;28;20205;-77
2022/10/01 14:15:57;;;;;;;1.50;1.40;;;;;;;;;;5049392;28;20262;-77
2022/10/01 14:16:15;;;;;;;0.97;0.90;;;;;;;;;;5050174;28;20263;-77
2022/10/01 14:18:44;;;;;;;1.20;1.20;;;;;;;;;;5050280;28;20202;-77
2022/10/01 14:21:22;;;;;;;1.20;1.20;;;;;;;;;;5049965;28;20202;-77
2022/10/01 14:23:56;;;;;;;1.23;1.23;;;;;;;;;;5050459;28;20201;-77
2022/10/01 14:26:28;;;;;;;1.00;1.00;;;;;;;;;;5050013;28;20287;-77
2022/10/01 14:29:05;;;;;;;1.50;1.40;;;;;;;;;;5050100;28;20205;-77
2022/10/01 14:31:41;;;;;;;1.23;1.23;;;;;;;;;;5050036;28;20252;-77
2022/10/01 14:34:41;;;;;;;2.33;1.23;;;;;;;;;;5049724;28;20779;-77
2022/10/01 14:37:12;;;;;;;1.43;1.33;;;;;;;;;;5048169;28;20205;-77
2022/10/01 14:39:38;;;;;;;1.33;1.23;;;;;;;;;;5049971;28;20202;-78
2022/10/01 14:42:09;;;;;;;1.70;1.60;;;;;;;;;;5050233;28;20198;-78
2022/10/01 14:44:38;;;;;;;1.30;1.20;;;;;;;;;;5049610;28;20298;-77
2022/10/01 14:47:14;;;;;;;1.77;1.50;;;;;;;;;;5049917;28;20205;-77
2022/10/01 14:49:41;;;;;;;1.50;1.40;;;;;;;;;;5049783;28;20292;-77
2022/10/01 14:52:24;;;;;;;1.60;1.50;;;;;;;;;;5049836;28;21784;-77
2022/10/01 14:54:57;;;;;;;2.07;1.97;;;;;;;;;;5049600;28;20202;-77
2022/10/01 14:57:28;;;;;;;2.10;1.90;;;;;;;;;;5036369;28;20202;-77
2022/10/01 14:59:56;;;;;;;2.17;2.07;;;;;;;;;;5049787;28;20202;-77
2022/10/01 15:02:25;;;;;;;1.63;1.53;;;;;;;;;;5049548;28;20206;-77
2022/10/01 15:04:53;;;;;;;1.50;1.40;;;;;;;;;;5049703;28;20206;-77
2022/10/01 15:07:20;;;;;;;4.47;4.13;;;;;;;;;;5049765;28;20210;-77